Kezdőlap
METAR-TAF:

METAR-TAF

Repülőterek :

Austin, Minnesota, Amerikai Egyesült Államok

földrajzi szélesség: 43-40N, földrajzi hosszúság: 092-56W, magasság: 375 m

Jelenlegi meteorológiai megfigyelések

A jelentés 20 perccel ezelõtt készült, 16:15 UTC
Észak-északkeleti szél 7 kt
Hőmérséklet 12°C
Páratartalom 32%
Légköri nyomás 1029 hPa
Látótávolság: 16.1 km
Derült ég

METAR: KAUM 111615Z AUTO 03007KT 10SM CLR 12/M04 A3040 RMK AO2

Idő: 11:35 (16:35 UTC)


TAF: hiányzik

Meteorológiai megfigyelések és előrejelzések több, mint 4000 repülőtéren (METAR és TAF jelentéseket).

A térképen piros és sárga pontok jelzik az elérhető meteorológiai állomásokat.

Mozgassa az egeret a pont fölött, hogy megjelenjen az állomás neve.

Azután kattintson az időjárási megfigyelések és előrejelzések megtekintéséhez.

A térkép megváltoztatása: kattintson a fekete keresztel jelölt zöld gombra ráközelítéshez, a vonallal jelölt zöld gombra távolításhoz, vagy a zöld nyilakra a szomszédos térképek eléréséhez.


METAR-TAF: